createdAt,value
2019-04-25T00:00:01.995Z,18.05
2019-04-25T00:01:03.317Z,18.05
2019-04-25T00:02:01.888Z,17.96
2019-04-25T00:03:01.455Z,17.96
2019-04-25T00:04:02.008Z,18.05
2019-04-25T00:05:03.242Z,18.05
2019-04-25T00:06:02.376Z,18.05
2019-04-25T00:07:02.216Z,18.05
2019-04-25T00:08:01.578Z,18.05
2019-04-25T00:09:01.919Z,18.05
2019-04-25T00:10:01.659Z,17.96
2019-04-25T00:11:01.744Z,18.05
2019-04-25T00:12:02.288Z,18.05
2019-04-25T00:13:01.689Z,18.05
2019-04-25T00:14:01.665Z,18.05
2019-04-25T00:15:01.714Z,17.96
2019-04-25T00:16:01.913Z,18.05
2019-04-25T00:17:01.772Z,18.05
2019-04-25T00:18:02.345Z,17.96
2019-04-25T00:19:01.896Z,18.05
2019-04-25T00:20:01.764Z,17.96
2019-04-25T00:21:01.494Z,18.05
2019-04-25T00:22:01.995Z,18.05
2019-04-25T00:23:01.998Z,17.96
2019-04-25T00:24:02.619Z,17.96
2019-04-25T00:25:14.712Z,18.05
2019-04-25T00:26:01.506Z,17.86
2019-04-25T00:27:02.229Z,17.96
2019-04-25T00:28:01.865Z,18.05
2019-04-25T00:29:02.017Z,17.96
2019-04-25T00:30:01.766Z,17.86
2019-04-25T00:31:02.138Z,17.96
2019-04-25T00:32:01.720Z,17.96
2019-04-25T00:33:02.040Z,17.86
2019-04-25T00:34:02.162Z,17.96
2019-04-25T00:35:02.012Z,17.86
2019-04-25T00:36:02.068Z,17.86
2019-04-25T00:37:02.478Z,17.76
2019-04-25T00:38:02.362Z,17.86
2019-04-25T00:39:02.030Z,17.76
2019-04-25T00:40:01.687Z,17.76
2019-04-25T00:41:01.787Z,17.76
2019-04-25T00:42:02.343Z,17.86
2019-04-25T00:43:01.700Z,17.85
2019-04-25T00:44:02.412Z,17.76
2019-04-25T00:45:02.383Z,17.76
2019-04-25T00:46:01.624Z,17.86
2019-04-25T00:47:02.461Z,17.86
2019-04-25T00:48:04.008Z,17.86
2019-04-25T00:49:02.553Z,17.66
2019-04-25T00:50:02.300Z,17.76
2019-04-25T00:51:01.971Z,17.76
2019-04-25T00:52:02.085Z,17.86
2019-04-25T00:53:01.577Z,17.76
2019-04-25T00:54:02.398Z,17.76
2019-04-25T00:55:01.994Z,17.66
2019-04-25T00:56:01.636Z,17.76
2019-04-25T00:57:02.185Z,17.66
2019-04-25T00:58:03.326Z,17.76
2019-04-25T00:59:02.025Z,17.76
2019-04-25T01:00:01.949Z,17.76
2019-04-25T01:01:02.060Z,17.76
2019-04-25T01:02:01.598Z,17.76
2019-04-25T01:03:03.317Z,17.76
2019-04-25T01:04:02.314Z,17.66
2019-04-25T01:05:02.021Z,17.86
2019-04-25T01:06:03.463Z,17.76
2019-04-25T01:07:01.619Z,17.76
2019-04-25T01:08:02.147Z,17.76
2019-04-25T01:09:01.635Z,17.76
2019-04-25T01:10:02.497Z,17.76
2019-04-25T01:11:01.842Z,17.76
2019-04-25T01:12:03.906Z,17.86
2019-04-25T01:13:03.092Z,17.76
2019-04-25T01:14:02.186Z,17.76
2019-04-25T01:15:01.811Z,17.85
2019-04-25T01:16:02.170Z,17.76
2019-04-25T01:17:01.801Z,17.76
2019-04-25T01:18:01.638Z,17.57
2019-04-25T01:19:01.641Z,17.76
2019-04-25T01:20:01.643Z,17.76
2019-04-25T01:21:01.646Z,17.76
2019-04-25T01:22:01.651Z,17.76
2019-04-25T01:23:01.652Z,17.66
2019-04-25T01:24:01.653Z,17.96
2019-04-25T01:25:01.658Z,17.57
2019-04-25T01:26:03.229Z,17.76
2019-04-25T01:27:01.662Z,17.76
2019-04-25T01:28:03.150Z,17.86
2019-04-25T01:29:01.665Z,17.66
2019-04-25T01:30:01.669Z,17.76
2019-04-25T01:31:01.672Z,17.86
2019-04-25T01:32:03.196Z,17.76
2019-04-25T01:33:03.422Z,17.76
2019-04-25T01:34:01.679Z,17.66
2019-04-25T01:35:01.739Z,17.76
2019-04-25T01:36:03.273Z,17.85
2019-04-25T01:37:01.684Z,17.86
2019-04-25T01:38:01.687Z,17.96
2019-04-25T01:39:01.691Z,17.66
2019-04-25T01:40:01.694Z,17.66
2019-04-25T01:41:03.391Z,17.76
2019-04-25T01:42:01.699Z,17.85
2019-04-25T01:43:01.704Z,17.66
2019-04-25T01:44:01.703Z,17.76
2019-04-25T01:45:01.705Z,17.76
2019-04-25T01:46:03.257Z,17.95
2019-04-25T01:47:01.712Z,17.96
2019-04-25T01:48:03.429Z,17.76
2019-04-25T01:49:01.715Z,17.76
2019-04-25T01:50:01.722Z,17.66
2019-04-25T01:51:01.720Z,17.76
2019-04-25T01:52:03.210Z,18.15
2019-04-25T01:53:03.326Z,17.76
2019-04-25T01:54:01.728Z,17.76
2019-04-25T01:55:03.462Z,18.15
2019-04-25T01:56:05.902Z,17.66
2019-04-25T01:57:01.735Z,17.66
2019-04-25T01:58:01.741Z,18.05
2019-04-25T01:59:01.742Z,18.05
2019-04-25T02:00:02.315Z,18.05
2019-04-25T02:01:01.749Z,17.46
2019-04-25T02:02:01.749Z,17.66
2019-04-25T02:03:03.679Z,17.66
2019-04-25T02:04:03.306Z,17.66
2019-04-25T02:05:04.767Z,17.56
2019-04-25T02:06:01.759Z,17.46
2019-04-25T02:07:03.338Z,17.66
2019-04-25T02:08:01.763Z,17.66
2019-04-25T02:09:01.773Z,17.66
2019-04-25T02:10:03.636Z,17.66
2019-04-25T02:11:02.793Z,17.47
2019-04-25T02:12:01.773Z,17.96
2019-04-25T02:13:02.467Z,18.05
2019-04-25T02:14:01.783Z,17.76
2019-04-25T02:15:03.933Z,17.96
2019-04-25T02:16:01.786Z,17.96
2019-04-25T02:17:02.783Z,17.86
2019-04-25T02:18:03.665Z,17.86
2019-04-25T02:19:03.838Z,17.85
2019-04-25T02:20:02.083Z,17.95
2019-04-25T02:21:04.351Z,17.96
2019-04-25T02:22:03.569Z,17.76
2019-04-25T02:23:02.087Z,17.86
2019-04-25T02:24:03.894Z,17.76
2019-04-25T02:25:04.059Z,17.76
2019-04-25T02:26:13.390Z,17.85
2019-04-25T02:27:03.757Z,17.76
2019-04-25T02:28:03.733Z,17.76
2019-04-25T02:29:03.085Z,17.76
2019-04-25T02:30:03.522Z,17.85
2019-04-25T02:31:03.812Z,17.85
2019-04-25T02:32:07.635Z,17.85
2019-04-25T02:33:06.751Z,17.76
2019-04-25T02:34:03.528Z,17.76
2019-04-25T02:35:05.512Z,17.66
2019-04-25T02:36:04.055Z,17.76
2019-04-25T02:37:07.134Z,17.76
2019-04-25T02:38:04.637Z,17.76
2019-04-25T02:39:04.545Z,17.66
2019-04-25T02:40:05.808Z,17.76
2019-04-25T02:41:05.773Z,17.76
2019-04-25T02:42:04.018Z,17.76
2019-04-25T02:43:03.218Z,17.76
2019-04-25T02:44:06.349Z,17.76
2019-04-25T02:45:03.158Z,17.66
2019-04-25T02:46:06.063Z,17.66
2019-04-25T02:47:03.326Z,17.76
2019-04-25T02:48:05.212Z,17.76
2019-04-25T02:49:05.468Z,17.76
2019-04-25T02:50:03.472Z,17.66
2019-04-25T02:51:04.643Z,17.66
2019-04-25T02:52:03.418Z,17.66
2019-04-25T02:53:04.757Z,17.66
2019-04-25T02:54:05.238Z,17.56
2019-04-25T02:55:04.102Z,17.66
2019-04-25T02:56:04.958Z,17.66
2019-04-25T02:57:02.097Z,17.56
2019-04-25T02:58:04.864Z,17.56
2019-04-25T02:59:04.858Z,17.46
2019-04-25T03:00:03.592Z,17.66
2019-04-25T03:01:10.728Z,17.47
2019-04-25T03:02:05.192Z,17.46
2019-04-25T03:03:03.406Z,17.46
2019-04-25T03:04:04.878Z,17.66
2019-04-25T03:05:03.904Z,17.46
2019-04-25T03:06:03.007Z,17.46
2019-04-25T03:07:03.608Z,17.46
2019-04-25T03:08:05.296Z,17.56
2019-04-25T03:09:02.103Z,17.66
2019-04-25T03:10:02.169Z,17.46
2019-04-25T03:11:04.655Z,17.46
2019-04-25T03:12:01.978Z,17.47
2019-04-25T03:13:06.375Z,17.46
2019-04-25T03:14:02.125Z,17.56
2019-04-25T03:15:02.922Z,17.56
2019-04-25T03:16:03.348Z,17.56
2019-04-25T03:17:04.778Z,17.56
2019-04-25T03:18:02.414Z,17.56
2019-04-25T03:19:02.984Z,17.56
2019-04-25T03:20:03.969Z,17.56
2019-04-25T03:21:05.165Z,17.56
2019-04-25T03:22:03.166Z,17.57
2019-04-25T03:23:05.192Z,17.46
2019-04-25T03:24:05.266Z,17.56
2019-04-25T03:25:03.966Z,17.46
2019-04-25T03:26:03.811Z,17.56
2019-04-25T03:27:02.895Z,17.46
2019-04-25T03:28:03.881Z,17.46
2019-04-25T03:29:03.560Z,17.56
2019-04-25T03:30:02.087Z,17.56
2019-04-25T03:31:04.489Z,17.46
2019-04-25T03:32:02.704Z,17.47
2019-04-25T03:33:04.764Z,17.56
2019-04-25T03:34:05.515Z,17.46
2019-04-25T03:35:04.444Z,17.46
2019-04-25T03:36:03.109Z,17.56
2019-04-25T03:37:03.796Z,17.46
2019-04-25T03:38:02.386Z,17.56
2019-04-25T03:39:02.593Z,17.56
2019-04-25T03:40:02.653Z,17.56
2019-04-25T03:41:02.959Z,17.46
2019-04-25T03:42:02.234Z,17.56
2019-04-25T03:43:04.729Z,17.36
2019-04-25T03:44:03.037Z,17.46
2019-04-25T03:45:03.275Z,17.46
2019-04-25T03:46:04.656Z,17.47
2019-04-25T03:47:05.255Z,17.36
2019-04-25T03:48:02.013Z,17.56
2019-04-25T03:49:02.583Z,17.46
2019-04-25T03:50:04.432Z,17.46
2019-04-25T03:51:02.848Z,17.36
2019-04-25T03:52:02.870Z,17.46
2019-04-25T03:53:03.058Z,17.36
2019-04-25T03:54:04.478Z,17.46
2019-04-25T03:55:04.664Z,17.46
2019-04-25T03:56:03.330Z,17.36
2019-04-25T03:57:04.744Z,17.36
2019-04-25T03:58:04.504Z,17.36
2019-04-25T03:59:04.810Z,17.27
2019-04-25T04:00:03.568Z,17.36
2019-04-25T04:01:03.915Z,17.36
2019-04-25T04:02:03.834Z,17.27
2019-04-25T04:03:03.924Z,17.27
2019-04-25T04:04:04.578Z,17.46
2019-04-25T04:05:04.550Z,17.36
2019-04-25T04:06:04.370Z,17.36
2019-04-25T04:07:04.448Z,17.36
2019-04-25T04:08:04.271Z,17.27
2019-04-25T04:09:03.695Z,17.36
2019-04-25T04:10:04.534Z,17.46
2019-04-25T04:11:02.072Z,17.27
2019-04-25T04:12:04.296Z,17.36
2019-04-25T04:13:02.104Z,17.46
2019-04-25T04:14:03.910Z,17.27
2019-04-25T04:15:03.714Z,17.36
2019-04-25T04:16:03.337Z,17.27
2019-04-25T04:17:04.028Z,17.27
2019-04-25T04:18:02.086Z,17.27
2019-04-25T04:19:02.102Z,17.36
2019-04-25T04:20:03.835Z,17.27
2019-04-25T04:21:03.195Z,17.27
2019-04-25T04:22:03.097Z,17.36
2019-04-25T04:23:03.197Z,17.18
2019-04-25T04:24:02.110Z,17.27
2019-04-25T04:25:03.684Z,17.46
2019-04-25T04:26:03.318Z,17.46
2019-04-25T04:27:04.248Z,17.46
2019-04-25T04:28:03.698Z,17.36
2019-04-25T04:29:03.055Z,17.27
2019-04-25T04:30:02.128Z,17.18
2019-04-25T04:31:03.596Z,17.27
2019-04-25T04:32:03.060Z,17.46
2019-04-25T04:33:03.508Z,17.56
2019-04-25T04:34:03.679Z,17.46
2019-04-25T04:35:03.489Z,17.46
2019-04-25T04:36:03.756Z,17.56
2019-04-25T04:37:03.606Z,17.56
2019-04-25T04:38:02.141Z,17.56
2019-04-25T04:39:03.821Z,17.57
2019-04-25T04:40:03.611Z,17.56
2019-04-25T04:41:03.852Z,17.36
2019-04-25T04:42:03.683Z,17.46
2019-04-25T04:43:02.149Z,17.27
2019-04-25T04:44:02.152Z,17.56
2019-04-25T04:45:03.606Z,17.36
2019-04-25T04:46:03.835Z,17.56
2019-04-25T04:47:03.799Z,17.76
2019-04-25T04:48:03.247Z,17.95
2019-04-25T04:49:03.773Z,19.02
2019-04-25T04:50:03.850Z,19.02
2019-04-25T04:51:03.400Z,19.31
2019-04-25T04:52:02.272Z,19.02
2019-04-25T04:53:03.837Z,18.83
2019-04-25T04:54:03.453Z,18.54
2019-04-25T04:55:07.750Z,18.15
2019-04-25T04:56:02.180Z,18.35
2019-04-25T04:57:16.179Z,18.05
2019-04-25T04:58:02.187Z,18.05
2019-04-25T04:59:03.628Z,18.44
2019-04-25T05:00:03.646Z,18.15
2019-04-25T05:01:03.663Z,18.05
2019-04-25T05:02:03.331Z,17.95
2019-04-25T05:03:02.404Z,17.96
2019-04-25T05:04:03.937Z,18.05
2019-04-25T05:05:03.630Z,18.05
2019-04-25T05:06:03.669Z,18.05
2019-04-25T05:07:03.619Z,18.15
2019-04-25T05:08:03.780Z,18.15
2019-04-25T05:09:03.348Z,18.44
2019-04-25T05:10:03.330Z,18.44
2019-04-25T05:11:03.967Z,18.44
2019-04-25T05:12:02.269Z,18.44
2019-04-25T05:13:02.225Z,18.54
2019-04-25T05:14:03.943Z,18.25
2019-04-25T05:15:03.702Z,18.15
2019-04-25T05:16:03.177Z,18.25
2019-04-25T05:17:02.234Z,18.05
2019-04-25T05:18:03.937Z,17.96
2019-04-25T05:19:03.683Z,17.86
2019-04-25T05:20:03.542Z,18.05
2019-04-25T05:21:02.344Z,18.05
2019-04-25T05:22:03.646Z,18.05
2019-04-25T05:23:03.179Z,17.76
2019-04-25T05:24:02.251Z,17.66
2019-04-25T05:25:03.473Z,17.66
2019-04-25T05:26:02.285Z,17.76
2019-04-25T05:27:03.821Z,17.86
2019-04-25T05:28:03.542Z,17.66
2019-04-25T05:29:03.651Z,17.66
2019-04-25T05:30:03.929Z,17.76
2019-04-25T05:31:03.446Z,17.76
2019-04-25T05:32:04.141Z,17.86
2019-04-25T05:33:03.915Z,17.66
2019-04-25T05:34:03.688Z,17.96
2019-04-25T05:35:03.341Z,17.57
2019-04-25T05:36:03.736Z,17.66
2019-04-25T05:37:03.734Z,17.76
2019-04-25T05:38:03.419Z,17.66
2019-04-25T05:39:04.000Z,17.66
2019-04-25T05:40:03.410Z,18.05
2019-04-25T05:41:03.884Z,17.96
2019-04-25T05:42:04.173Z,17.66
2019-04-25T05:43:03.298Z,17.96
2019-04-25T05:44:02.303Z,18.15
2019-04-25T05:45:02.307Z,17.76
2019-04-25T05:46:03.375Z,17.86
2019-04-25T05:47:04.099Z,17.57
2019-04-25T05:48:04.268Z,17.76
2019-04-25T05:49:03.459Z,18.05
2019-04-25T05:50:02.330Z,17.96
2019-04-25T05:51:03.860Z,18.05
2019-04-25T05:52:03.901Z,18.44
2019-04-25T05:53:02.330Z,18.15
2019-04-25T05:54:04.057Z,18.15
2019-04-25T05:55:03.857Z,18.35
2019-04-25T05:56:04.045Z,18.15
2019-04-25T05:57:03.723Z,18.25
2019-04-25T05:58:03.843Z,18.44
2019-04-25T05:59:03.631Z,18.44
2019-04-25T06:00:03.681Z,18.54
2019-04-25T06:01:03.380Z,18.44
2019-04-25T06:02:03.934Z,18.44
2019-04-25T06:03:03.563Z,18.54
2019-04-25T06:04:05.163Z,18.54
2019-04-25T06:05:03.572Z,18.44
2019-04-25T06:06:03.387Z,18.64
2019-04-25T06:07:02.368Z,18.83
2019-04-25T06:08:04.116Z,18.84
2019-04-25T06:09:04.026Z,18.93
2019-04-25T06:10:04.090Z,18.83
2019-04-25T06:11:03.828Z,18.74
2019-04-25T06:12:03.095Z,18.74
2019-04-25T06:13:03.503Z,18.73
2019-04-25T06:14:03.403Z,18.94
2019-04-25T06:15:02.996Z,18.93
2019-04-25T06:16:03.519Z,18.93
2019-04-25T06:17:03.492Z,18.94
2019-04-25T06:18:03.907Z,18.83
2019-04-25T06:19:13.653Z,19.04
2019-04-25T06:20:04.420Z,19.02
2019-04-25T06:21:03.081Z,18.83
2019-04-25T06:22:03.216Z,18.83
2019-04-25T06:23:03.272Z,18.93
2019-04-25T06:24:04.231Z,19.02
2019-04-25T06:25:07.911Z,18.74
2019-04-25T06:26:17.099Z,18.93
2019-04-25T06:27:03.839Z,18.94
2019-04-25T06:28:03.775Z,18.74
2019-04-25T06:29:03.279Z,18.74
2019-04-25T06:30:04.183Z,18.74
2019-04-25T06:31:04.112Z,18.84
2019-04-25T06:32:06.582Z,18.73
2019-04-25T06:33:03.295Z,18.74
2019-04-25T06:34:02.546Z,18.54
2019-04-25T06:35:04.111Z,18.45
2019-04-25T06:36:04.148Z,18.65
2019-04-25T06:37:04.768Z,18.54
2019-04-25T06:38:03.591Z,18.44
2019-04-25T06:39:03.993Z,18.16
2019-04-25T06:40:03.480Z,18.26
2019-04-25T06:41:03.559Z,17.97
2019-04-25T06:42:03.944Z,17.68
2019-04-25T06:43:03.380Z,17.97
2019-04-25T06:44:04.058Z,17.58
2019-04-25T06:45:03.600Z,17.87
2019-04-25T06:46:03.784Z,17.77
2019-04-25T06:47:03.413Z,17.97
2019-04-25T06:48:03.980Z,17.87
2019-04-25T06:49:03.524Z,17.58
2019-04-25T06:50:04.205Z,17.48
2019-04-25T06:51:03.536Z,17.38
2019-04-25T06:52:04.113Z,17.19
2019-04-25T06:53:03.484Z,17.48
2019-04-25T06:54:03.416Z,17.38
2019-04-25T06:55:03.374Z,17.29
2019-04-25T06:56:04.361Z,17.38
2019-04-25T06:57:04.476Z,17.38
2019-04-25T06:58:10.280Z,17.29
2019-04-25T06:59:03.496Z,17.29
2019-04-25T07:00:04.318Z,17.19
2019-04-25T07:01:03.395Z,17.29
2019-04-25T07:02:04.197Z,17.29
2019-04-25T07:03:04.253Z,17.19
2019-04-25T07:04:04.076Z,17.19
2019-04-25T07:05:03.967Z,17.29
2019-04-25T07:06:03.250Z,17.09
2019-04-25T07:07:10.692Z,17.29
2019-04-25T07:08:03.320Z,17.09
2019-04-25T07:09:03.104Z,17.19
2019-04-25T07:10:03.634Z,17.29
2019-04-25T07:11:03.897Z,17.29
2019-04-25T07:12:03.583Z,17.29
2019-04-25T07:13:04.225Z,17.09
2019-04-25T07:14:03.836Z,16.99
2019-04-25T07:15:03.914Z,17.19
2019-04-25T07:16:03.070Z,17.29
2019-04-25T07:17:04.243Z,17.19
2019-04-25T07:18:03.803Z,17.19
2019-04-25T07:19:02.565Z,17.19
2019-04-25T07:20:03.892Z,17.19
2019-04-25T07:21:03.393Z,17.38
2019-04-25T07:22:03.902Z,17.48
2019-04-25T07:23:03.690Z,17.19
2019-04-25T07:24:04.098Z,17.29
2019-04-25T07:25:03.622Z,17.38
2019-04-25T07:26:03.735Z,17.77
2019-04-25T07:27:03.795Z,18.16
2019-04-25T07:28:03.398Z,18.16
2019-04-25T07:29:03.343Z,18.26
2019-04-25T07:30:04.062Z,18.16
2019-04-25T07:31:03.630Z,18.35
2019-04-25T07:32:03.894Z,18.35
2019-04-25T07:33:03.837Z,17.68
2019-04-25T07:34:03.293Z,17.38
2019-04-25T07:35:03.616Z,17.38
2019-04-25T07:36:04.116Z,17.09
2019-04-25T07:37:03.405Z,17.09
2019-04-25T07:38:04.011Z,17.20
2019-04-25T07:39:09.775Z,17.20
2019-04-25T07:40:04.102Z,17.19
2019-04-25T07:41:03.574Z,17.29
2019-04-25T07:42:04.131Z,17.19
2019-04-25T07:43:03.219Z,17.20
2019-04-25T07:44:04.199Z,17.29
2019-04-25T07:45:04.197Z,17.19
2019-04-25T07:46:03.365Z,17.19
2019-04-25T07:47:04.050Z,17.20
2019-04-25T07:48:04.091Z,17.20
2019-04-25T07:49:03.458Z,17.30
2019-04-25T07:50:04.007Z,17.20
2019-04-25T07:51:03.704Z,17.20
2019-04-25T07:52:03.570Z,17.30
2019-04-25T07:53:03.618Z,17.19
2019-04-25T07:54:04.444Z,17.20
2019-04-25T07:55:03.783Z,17.10
2019-04-25T07:56:04.259Z,17.20
2019-04-25T07:57:03.611Z,17.10
2019-04-25T07:58:03.168Z,17.20
2019-04-25T07:59:03.841Z,17.30
2019-04-25T08:00:03.220Z,17.10
2019-04-25T08:01:03.791Z,17.09
2019-04-25T08:02:03.373Z,17.19
2019-04-25T08:03:04.087Z,17.20
2019-04-25T08:04:03.569Z,17.20
2019-04-25T08:05:04.315Z,17.20
2019-04-25T08:06:05.117Z,17.20
2019-04-25T08:07:04.177Z,17.20
2019-04-25T08:08:03.538Z,17.20
2019-04-25T08:09:04.105Z,17.20
2019-04-25T08:10:04.073Z,17.20
2019-04-25T08:11:04.057Z,17.20
2019-04-25T08:12:03.354Z,17.10
2019-04-25T08:13:03.266Z,17.20
2019-04-25T08:14:03.436Z,17.10
2019-04-25T08:15:04.063Z,17.20
2019-04-25T08:16:03.406Z,17.20
2019-04-25T08:17:03.661Z,17.10
2019-04-25T08:18:04.080Z,17.20
2019-04-25T08:19:03.971Z,17.20
2019-04-25T08:20:03.966Z,17.10
2019-04-25T08:21:03.315Z,17.10
2019-04-25T08:22:03.655Z,17.20
2019-04-25T08:23:04.224Z,17.10
2019-04-25T08:24:03.009Z,17.30
2019-04-25T08:25:03.659Z,17.20
2019-04-25T08:26:04.172Z,17.30
2019-04-25T08:27:03.368Z,17.00
2019-04-25T08:28:03.801Z,17.40
2019-04-25T08:29:03.673Z,17.30
2019-04-25T08:30:04.310Z,17.30
2019-04-25T08:31:03.579Z,17.49
2019-04-25T08:32:04.573Z,17.30
2019-04-25T08:33:03.990Z,17.40
2019-04-25T08:34:03.620Z,17.30
2019-04-25T08:35:03.831Z,17.40
2019-04-25T08:36:06.509Z,17.49
2019-04-25T08:37:04.099Z,17.30
2019-04-25T08:38:03.433Z,17.30
2019-04-25T08:39:03.426Z,17.30
2019-04-25T08:40:03.984Z,17.10
2019-04-25T08:41:04.122Z,17.58
2019-04-25T08:42:03.491Z,17.58
2019-04-25T08:43:03.564Z,17.49
2019-04-25T08:44:04.055Z,17.30
2019-04-25T08:45:03.704Z,17.40
2019-04-25T08:46:04.229Z,17.30
2019-04-25T08:47:04.485Z,17.40
2019-04-25T08:48:03.645Z,17.40
2019-04-25T08:49:05.957Z,17.40
2019-04-25T08:50:03.690Z,17.40
2019-04-25T08:51:03.662Z,17.40
2019-04-25T08:52:04.151Z,17.40
2019-04-25T08:53:03.945Z,17.40
2019-04-25T08:54:03.813Z,17.49
2019-04-25T08:55:04.315Z,17.49
2019-04-25T08:56:03.819Z,17.49
2019-04-25T08:57:04.311Z,17.49
2019-04-25T08:58:03.701Z,17.49
2019-04-25T08:59:07.335Z,17.58
2019-04-25T09:00:03.976Z,17.58
2019-04-25T09:01:04.084Z,17.49
2019-04-25T09:02:03.521Z,17.69
2019-04-25T09:03:03.882Z,17.78
2019-04-25T09:04:05.085Z,17.68
2019-04-25T09:05:04.124Z,17.49
2019-04-25T09:06:03.518Z,17.78
2019-04-25T09:07:03.373Z,17.78
2019-04-25T09:08:04.194Z,17.78
2019-04-25T09:09:03.755Z,17.78
2019-04-25T09:10:03.551Z,17.68
2019-04-25T09:11:03.479Z,17.78
2019-04-25T09:12:04.185Z,18.07
2019-04-25T09:13:03.198Z,17.68
2019-04-25T09:14:03.685Z,17.88
2019-04-25T09:15:04.152Z,17.78
2019-04-25T09:16:03.618Z,17.58
2019-04-25T09:17:03.271Z,17.68
2019-04-25T09:18:04.040Z,17.58
2019-04-25T09:19:03.094Z,17.78
2019-04-25T09:20:04.036Z,17.68
2019-04-25T09:21:03.930Z,17.78
2019-04-25T09:22:03.329Z,17.78
2019-04-25T09:23:03.354Z,17.78
2019-04-25T09:24:03.391Z,17.68
2019-04-25T09:25:03.804Z,17.88
2019-04-25T09:26:04.016Z,17.88
2019-04-25T09:27:03.680Z,17.88
2019-04-25T09:28:04.394Z,17.79
2019-04-25T09:29:16.010Z,17.88
2019-04-25T09:30:03.916Z,17.69
2019-04-25T09:31:03.972Z,17.68
2019-04-25T09:32:03.737Z,17.79
2019-04-25T09:33:04.603Z,17.78
2019-04-25T09:34:04.100Z,17.88
2019-04-25T09:35:03.807Z,17.78
2019-04-25T09:36:03.020Z,18.08
2019-04-25T09:37:03.242Z,17.97
2019-04-25T09:38:03.462Z,18.07
2019-04-25T09:39:03.790Z,18.07
2019-04-25T09:40:04.209Z,17.97
2019-04-25T09:41:03.830Z,17.88
2019-04-25T09:42:04.354Z,17.68
2019-04-25T09:43:03.624Z,17.78
2019-04-25T09:44:04.511Z,17.78
2019-04-25T09:45:03.759Z,17.98
2019-04-25T09:46:03.275Z,17.78
2019-04-25T09:47:03.545Z,17.68
2019-04-25T09:48:03.419Z,17.97
2019-04-25T09:49:04.232Z,17.97
2019-04-25T09:50:04.142Z,17.68
2019-04-25T09:51:03.523Z,17.68
2019-04-25T09:52:03.404Z,17.78
2019-04-25T09:53:04.474Z,17.78
2019-04-25T09:54:03.500Z,17.79
2019-04-25T09:55:03.492Z,17.58
2019-04-25T09:56:04.153Z,17.69
2019-04-25T09:57:03.726Z,17.60
2019-04-25T09:58:04.105Z,17.49
2019-04-25T09:59:03.742Z,17.50
2019-04-25T10:00:03.624Z,17.60
2019-04-25T10:01:03.843Z,17.50
2019-04-25T10:02:03.652Z,17.60
2019-04-25T10:03:04.598Z,17.49
2019-04-25T10:04:03.258Z,17.40
2019-04-25T10:05:04.003Z,17.40
2019-04-25T10:06:03.388Z,17.50
2019-04-25T10:07:03.488Z,17.10
2019-04-25T10:08:03.462Z,17.40
2019-04-25T10:09:03.073Z,17.40
2019-04-25T10:10:03.752Z,17.40
2019-04-25T10:11:04.084Z,17.20
2019-04-25T10:12:03.082Z,17.11
2019-04-25T10:13:05.984Z,16.82
2019-04-25T10:14:04.553Z,16.82
2019-04-25T10:15:04.437Z,16.82
2019-04-25T10:16:03.094Z,16.91
2019-04-25T10:17:03.793Z,16.71
2019-04-25T10:18:03.200Z,16.82
2019-04-25T10:19:03.448Z,16.72
2019-04-25T10:20:03.106Z,16.82
2019-04-25T10:21:04.263Z,17.01
2019-04-25T10:22:03.486Z,16.91
2019-04-25T10:23:03.119Z,16.61
2019-04-25T10:24:03.629Z,16.53
2019-04-25T10:25:03.381Z,16.24
2019-04-25T10:26:03.819Z,16.53
2019-04-25T10:27:03.736Z,16.24
2019-04-25T10:28:04.346Z,15.94
2019-04-25T10:29:03.136Z,16.24
2019-04-25T10:30:16.038Z,15.94
2019-04-25T10:31:03.658Z,15.94
2019-04-25T10:32:04.325Z,15.94
2019-04-25T10:33:04.067Z,15.94
2019-04-25T10:34:03.797Z,15.84
2019-04-25T10:35:03.256Z,15.65
2019-04-25T10:36:04.201Z,15.07
2019-04-25T10:37:03.353Z,15.36
2019-04-25T10:38:03.597Z,15.26
2019-04-25T10:39:10.218Z,15.17
2019-04-25T10:40:04.330Z,15.26
2019-04-25T10:41:04.214Z,15.17
2019-04-25T10:42:03.667Z,15.65
2019-04-25T10:43:04.008Z,15.55
2019-04-25T10:44:03.400Z,15.17
2019-04-25T10:45:04.135Z,15.26
2019-04-25T10:46:03.743Z,14.97
2019-04-25T10:47:03.193Z,15.17
2019-04-25T10:48:04.292Z,15.07
2019-04-25T10:49:04.418Z,14.97
2019-04-25T10:50:03.844Z,14.97
2019-04-25T10:51:04.164Z,15.36
2019-04-25T10:52:03.210Z,15.07
2019-04-25T10:53:04.036Z,15.17
2019-04-25T10:54:04.189Z,15.26
2019-04-25T10:55:04.197Z,15.26
2019-04-25T10:56:05.586Z,15.36
2019-04-25T10:57:03.335Z,15.26
2019-04-25T10:58:03.908Z,15.26
2019-04-25T10:59:04.249Z,15.55
2019-04-25T11:00:07.527Z,15.45
2019-04-25T11:01:03.337Z,14.87
2019-04-25T11:02:04.057Z,15.07
2019-04-25T11:03:03.944Z,15.26
2019-04-25T11:04:04.695Z,15.07
2019-04-25T11:05:03.552Z,15.07
2019-04-25T11:06:03.918Z,15.26
2019-04-25T11:07:03.788Z,15.07
2019-04-25T11:08:04.314Z,15.07
2019-04-25T11:09:03.520Z,14.78
2019-04-25T11:10:03.632Z,14.68
2019-04-25T11:11:03.756Z,14.77
2019-04-25T11:12:03.314Z,14.58
2019-04-25T11:13:04.075Z,14.19
2019-04-25T11:14:03.426Z,14.39
2019-04-25T11:15:03.936Z,14.48
2019-04-25T11:16:03.632Z,14.29
2019-04-25T11:17:03.299Z,14.48
2019-04-25T11:18:04.197Z,14.29
2019-04-25T11:19:03.345Z,14.00
2019-04-25T11:20:05.475Z,14.00
2019-04-25T11:21:05.750Z,14.09
2019-04-25T11:22:03.973Z,14.48
2019-04-25T11:23:03.747Z,14.39
2019-04-25T11:24:04.093Z,14.39
2019-04-25T11:25:03.343Z,14.48
2019-04-25T11:26:03.927Z,14.58
2019-04-25T11:27:04.305Z,14.48
2019-04-25T11:28:03.913Z,14.39
2019-04-25T11:29:03.325Z,14.39
2019-04-25T11:30:10.824Z,14.29
2019-04-25T11:31:04.136Z,14.29
2019-04-25T11:32:03.335Z,14.67
2019-04-25T11:33:03.740Z,14.58
2019-04-25T11:34:03.705Z,14.67
2019-04-25T11:35:04.755Z,14.68
2019-04-25T11:36:04.199Z,14.78
2019-04-25T11:37:03.654Z,14.78
2019-04-25T11:38:03.558Z,14.68
2019-04-25T11:39:04.117Z,15.07
2019-04-25T11:40:04.295Z,14.78
2019-04-25T11:41:03.933Z,15.07
2019-04-25T11:42:03.371Z,15.07
2019-04-25T11:43:04.275Z,14.87
2019-04-25T11:44:03.549Z,14.87
2019-04-25T11:45:04.839Z,15.07
2019-04-25T11:46:04.881Z,15.17
2019-04-25T11:47:03.827Z,15.07
2019-04-25T11:48:03.435Z,14.87
2019-04-25T11:49:04.460Z,14.97
2019-04-25T11:50:03.936Z,15.17
2019-04-25T11:51:03.723Z,15.36
2019-04-25T11:52:05.300Z,15.26
2019-04-25T11:53:04.823Z,15.26
2019-04-25T11:54:03.625Z,15.26
2019-04-25T11:55:04.177Z,15.36
2019-04-25T11:56:03.744Z,15.07
2019-04-25T11:57:03.619Z,15.17
2019-04-25T11:58:03.742Z,15.26
2019-04-25T11:59:04.539Z,15.07
2019-04-25T12:00:04.281Z,15.17
2019-04-25T12:01:05.054Z,15.07
2019-04-25T12:02:04.652Z,14.97
2019-04-25T12:03:03.938Z,14.97
2019-04-25T12:04:04.137Z,15.07
2019-04-25T12:05:03.494Z,14.97
2019-04-25T12:06:03.449Z,14.87
2019-04-25T12:07:04.228Z,15.36
2019-04-25T12:08:04.102Z,15.36
2019-04-25T12:09:04.112Z,14.87
2019-04-25T12:10:03.803Z,15.36
2019-04-25T12:11:03.527Z,15.26
2019-04-25T12:12:05.675Z,15.45
2019-04-25T12:13:04.295Z,15.26
2019-04-25T12:14:04.297Z,15.26
2019-04-25T12:15:04.441Z,15.26
2019-04-25T12:16:04.147Z,15.36
2019-04-25T12:17:03.880Z,15.17
2019-04-25T12:18:04.697Z,15.07
2019-04-25T12:19:04.802Z,15.07
2019-04-25T12:20:03.952Z,15.17
2019-04-25T12:21:04.241Z,15.17
2019-04-25T12:22:04.124Z,15.17
2019-04-25T12:23:10.046Z,15.17
2019-04-25T12:24:05.574Z,15.07
2019-04-25T12:25:04.636Z,15.07
2019-04-25T12:26:03.951Z,15.26
2019-04-25T12:27:04.323Z,15.55
2019-04-25T12:28:04.564Z,15.45
2019-04-25T12:29:04.390Z,15.55
2019-04-25T12:30:05.395Z,15.55
2019-04-25T12:31:03.929Z,15.65
2019-04-25T12:32:04.047Z,15.75
2019-04-25T12:33:03.530Z,15.75
2019-04-25T12:34:03.594Z,15.45
2019-04-25T12:35:04.105Z,15.65
2019-04-25T12:36:03.639Z,15.65
2019-04-25T12:37:03.996Z,15.65
2019-04-25T12:38:03.547Z,15.75
2019-04-25T12:39:03.705Z,15.55
2019-04-25T12:40:04.408Z,15.55
2019-04-25T12:41:04.103Z,15.65
2019-04-25T12:42:04.289Z,15.65
2019-04-25T12:43:05.216Z,15.65
2019-04-25T12:44:03.714Z,15.55
2019-04-25T12:45:04.069Z,15.94
2019-04-25T12:46:03.571Z,15.84
2019-04-25T12:47:03.629Z,16.04
2019-04-25T12:48:04.044Z,16.04
2019-04-25T12:49:03.684Z,15.94
2019-04-25T12:50:04.053Z,15.84
2019-04-25T12:51:03.589Z,15.94
2019-04-25T12:52:03.652Z,15.94